createdAt,value
2018-08-23T00:00:05.616Z,21.52
2018-08-23T00:06:10.233Z,21.56
2018-08-23T00:12:14.789Z,21.28
2018-08-23T00:18:19.387Z,21.30
2018-08-23T00:24:24.724Z,21.09
2018-08-23T00:30:30.209Z,20.99
2018-08-23T00:36:36.380Z,20.69
2018-08-23T00:42:40.985Z,20.82
2018-08-23T00:48:45.612Z,20.78
2018-08-23T00:54:50.329Z,20.37
2018-08-23T01:00:59.900Z,20.30
2018-08-23T01:07:04.551Z,19.91
2018-08-23T01:13:09.139Z,19.61
2018-08-23T01:19:18.944Z,19.41
2018-08-23T01:25:23.590Z,19.41
2018-08-23T01:31:30.117Z,19.75
2018-08-23T01:37:42.185Z,19.78
2018-08-23T01:43:46.772Z,19.29
2018-08-23T01:49:51.351Z,19.12
2018-08-23T01:55:55.922Z,19.06
2018-08-23T02:02:04.981Z,19.04
2018-08-23T02:08:09.574Z,19.08
2018-08-23T02:14:14.169Z,19.12
2018-08-23T02:20:18.789Z,19.18
2018-08-23T02:26:23.417Z,19.34
2018-08-23T02:32:28.011Z,19.47
2018-08-23T02:38:32.781Z,19.72
2018-08-23T02:44:37.423Z,19.42
2018-08-23T02:50:41.986Z,19.57
2018-08-23T02:56:51.713Z,19.28
2018-08-23T03:02:56.430Z,19.13
2018-08-23T03:09:01.023Z,18.94
2018-08-23T03:15:07.263Z,18.84
2018-08-23T03:21:11.860Z,18.70
2018-08-23T03:27:16.437Z,18.57
2018-08-23T03:33:21.030Z,18.55
2018-08-23T03:39:25.685Z,18.66
2018-08-23T03:45:30.306Z,18.45
2018-08-23T03:51:38.677Z,18.31
2018-08-23T03:57:48.426Z,18.09
2018-08-23T04:03:53.708Z,17.93
2018-08-23T04:09:58.316Z,17.94
2018-08-23T04:16:03.635Z,18.13
2018-08-23T04:22:08.257Z,17.94
2018-08-23T04:28:13.292Z,17.75
2018-08-23T04:34:17.879Z,17.83
2018-08-23T04:40:22.514Z,17.74
2018-08-23T04:46:27.095Z,17.74
2018-08-23T04:52:31.719Z,17.68
2018-08-23T04:58:36.301Z,17.75
2018-08-23T05:04:40.886Z,17.96
2018-08-23T05:10:45.490Z,18.08
2018-08-23T05:16:50.064Z,18.17
2018-08-23T05:22:59.852Z,18.53
2018-08-23T05:29:05.455Z,18.45
2018-08-23T05:35:10.046Z,18.62
2018-08-23T05:41:14.630Z,18.70
2018-08-23T05:47:19.265Z,19.00
2018-08-23T05:53:23.874Z,19.11
2018-08-23T05:59:28.497Z,19.20
2018-08-23T06:05:33.106Z,19.56
2018-08-23T06:11:37.729Z,19.87
2018-08-23T06:17:42.273Z,20.19
2018-08-23T06:23:54.073Z,20.67
2018-08-23T06:29:58.657Z,20.86
2018-08-23T06:36:03.818Z,20.96
2018-08-23T06:42:08.456Z,21.37
2018-08-23T06:48:13.081Z,21.69
2018-08-23T06:54:17.709Z,23.21
2018-08-23T07:00:26.636Z,26.56
2018-08-23T07:06:31.463Z,26.41
2018-08-23T07:12:36.045Z,24.88
2018-08-23T07:18:40.641Z,24.46
2018-08-23T07:24:46.457Z,24.41
2018-08-23T07:30:51.128Z,24.57
2018-08-23T07:36:55.817Z,24.72
2018-08-23T07:43:00.448Z,25.06
2018-08-23T07:49:05.096Z,25.34
2018-08-23T07:55:09.720Z,25.68
2018-08-23T08:01:14.299Z,25.50
2018-08-23T08:07:21.711Z,26.37
2018-08-23T08:13:26.296Z,26.66
2018-08-23T08:19:38.149Z,27.10
2018-08-23T08:25:42.986Z,27.37
2018-08-23T08:31:47.706Z,27.50
2018-08-23T08:37:52.440Z,28.37
2018-08-23T08:43:57.075Z,28.33
2018-08-23T08:50:02.434Z,28.12
2018-08-23T08:56:08.059Z,28.48
2018-08-23T09:02:13.130Z,29.42
2018-08-23T09:08:18.263Z,29.75
2018-08-23T09:14:23.415Z,30.21
2018-08-23T09:20:28.753Z,30.86
2018-08-23T09:26:38.939Z,30.81
2018-08-23T09:32:43.941Z,31.30
2018-08-23T09:38:48.977Z,31.32
2018-08-23T09:45:11.045Z,31.15
2018-08-23T09:51:21.368Z,32.01
2018-08-23T09:57:26.877Z,32.06
2018-08-23T10:03:37.435Z,33.63
2018-08-23T10:09:47.330Z,34.24
2018-08-23T10:15:57.221Z,34.73
2018-08-23T10:22:07.211Z,36.08
2018-08-23T10:28:13.466Z,36.30
2018-08-23T10:34:18.537Z,36.42
2018-08-23T10:40:23.548Z,37.28
2018-08-23T10:46:28.469Z,36.67
2018-08-23T10:52:33.439Z,35.14
2018-08-23T10:58:38.437Z,35.25
2018-08-23T11:04:43.473Z,37.12
2018-08-23T11:10:53.469Z,37.93
2018-08-23T11:17:03.596Z,39.32
2018-08-23T11:23:08.708Z,39.66
2018-08-23T11:29:13.681Z,38.55
2018-08-23T11:35:18.694Z,37.65
2018-08-23T11:41:23.470Z,38.05
2018-08-23T11:47:28.185Z,39.79
2018-08-23T11:53:33.246Z,38.38
2018-08-23T11:59:38.069Z,39.88
2018-08-23T12:05:43.429Z,38.82
2018-08-23T12:11:48.440Z,39.03
2018-08-23T12:17:54.329Z,38.17
2018-08-23T12:23:59.256Z,38.44
2018-08-23T12:30:06.434Z,37.93
2018-08-23T12:36:11.218Z,38.05
2018-08-23T12:42:21.243Z,38.08
2018-08-23T12:48:26.317Z,37.52
2018-08-23T12:54:31.299Z,37.29
2018-08-23T13:00:36.933Z,38.61
2018-08-23T13:06:41.853Z,38.44
2018-08-23T13:12:46.882Z,38.65
2018-08-23T13:18:51.867Z,39.37
2018-08-23T13:25:01.901Z,38.10
2018-08-23T13:31:06.707Z,37.58
2018-08-23T13:37:11.428Z,38.58
2018-08-23T13:43:16.184Z,39.18
2018-08-23T13:49:20.901Z,37.45
2018-08-23T13:55:25.916Z,37.35
2018-08-23T14:01:30.775Z,37.04
2018-08-23T14:07:35.414Z,37.74
2018-08-23T14:13:41.573Z,38.22
2018-08-23T14:19:47.262Z,40.13
2018-08-23T14:25:53.300Z,40.94
2018-08-23T14:31:58.835Z,40.14
2018-08-23T14:38:03.638Z,40.72
2018-08-23T14:44:08.813Z,39.93
2018-08-23T14:50:13.424Z,39.77
2018-08-23T14:56:23.538Z,38.20
2018-08-23T15:02:28.592Z,37.83
2018-08-23T15:08:33.600Z,35.49
2018-08-23T15:14:38.712Z,33.85
2018-08-23T15:20:43.628Z,34.69
2018-08-23T15:26:48.766Z,33.37
2018-08-23T15:32:53.316Z,31.87
2018-08-23T15:38:57.966Z,31.21
2018-08-23T15:45:02.603Z,31.19
2018-08-23T15:51:07.300Z,32.43
2018-08-23T15:57:12.167Z,32.30
2018-08-23T16:03:17.163Z,32.37
2018-08-23T16:09:22.206Z,33.63
2018-08-23T16:15:27.560Z,34.06
2018-08-23T16:21:36.083Z,34.68
2018-08-23T16:27:41.150Z,33.84
2018-08-23T16:33:46.127Z,32.89
2018-08-23T16:39:51.169Z,32.52
2018-08-23T16:45:56.175Z,33.14
2018-08-23T16:52:01.168Z,33.87
2018-08-23T16:58:06.164Z,33.47
2018-08-23T17:04:11.218Z,33.68
2018-08-23T17:10:16.271Z,33.12
2018-08-23T17:16:26.876Z,32.55
2018-08-23T17:22:31.864Z,31.78
2018-08-23T17:28:36.995Z,30.94
2018-08-23T17:34:42.055Z,30.26
2018-08-23T17:40:47.465Z,29.96
2018-08-23T17:46:52.499Z,29.84
2018-08-23T17:52:57.483Z,29.36
2018-08-23T17:59:02.354Z,29.03
2018-08-23T18:05:07.378Z,28.63
2018-08-23T18:11:12.329Z,28.16
2018-08-23T18:17:17.296Z,27.71
2018-08-23T18:23:22.085Z,27.51
2018-08-23T18:29:26.767Z,27.09
2018-08-23T18:35:31.460Z,26.80
2018-08-23T18:41:36.434Z,26.73
2018-08-23T18:47:41.550Z,26.26
2018-08-23T18:53:46.515Z,26.29
2018-08-23T18:59:51.532Z,26.03
2018-08-23T19:05:56.435Z,25.75
2018-08-23T19:12:01.095Z,25.24
2018-08-23T19:18:06.095Z,25.14
2018-08-23T19:24:10.675Z,24.91
2018-08-23T19:30:15.288Z,24.61
2018-08-23T19:36:19.900Z,24.67
2018-08-23T19:42:24.561Z,24.46
2018-08-23T19:48:29.186Z,24.45
2018-08-23T19:54:33.800Z,24.10
2018-08-23T20:00:38.389Z,23.97
2018-08-23T20:06:42.985Z,23.79
2018-08-23T20:12:47.562Z,23.99
2018-08-23T20:18:52.201Z,23.71
2018-08-23T20:24:56.875Z,23.78
2018-08-23T20:31:01.438Z,23.57
2018-08-23T20:37:06.165Z,23.50
2018-08-23T20:43:10.750Z,23.71
2018-08-23T20:49:15.345Z,23.61
2018-08-23T20:55:19.926Z,23.53
2018-08-23T21:01:24.502Z,23.63
2018-08-23T21:07:29.082Z,23.57
2018-08-23T21:13:33.642Z,23.55
2018-08-23T21:19:38.279Z,23.78
2018-08-23T21:25:42.864Z,23.61
2018-08-23T21:31:47.460Z,23.57
2018-08-23T21:37:52.062Z,23.65
2018-08-23T21:43:56.676Z,23.51
2018-08-23T21:50:01.253Z,23.51
2018-08-23T21:56:05.839Z,23.62
2018-08-23T22:02:15.694Z,23.24
2018-08-23T22:08:20.307Z,23.17
2018-08-23T22:14:24.889Z,22.99
2018-08-23T22:20:29.513Z,23.13
2018-08-23T22:26:34.126Z,22.73
2018-08-23T22:32:38.768Z,22.50
2018-08-23T22:38:43.400Z,22.65
2018-08-23T22:44:48.006Z,22.68
2018-08-23T22:50:52.601Z,22.35
2018-08-23T22:56:57.253Z,22.32
2018-08-23T23:03:01.849Z,22.36
2018-08-23T23:09:11.144Z,22.41
2018-08-23T23:15:21.140Z,22.42
2018-08-23T23:21:25.704Z,22.31
2018-08-23T23:27:30.824Z,22.24
2018-08-23T23:33:35.430Z,22.27
2018-08-23T23:39:40.022Z,22.01
2018-08-23T23:45:44.560Z,22.06
2018-08-23T23:51:49.123Z,22.03
2018-08-23T23:57:53.684Z,22.21
